sensor_id;sensor_type;location;lat;lon;timestamp;temperature;humidity
16301;DHT22;8258;51.020;4.248;2023-12-20T00:02:24;5.30;99.90
16301;DHT22;8258;51.020;4.248;2023-12-20T00:04:51;5.30;99.90
16301;DHT22;8258;51.020;4.248;2023-12-20T00:07:19;5.20;99.90
16301;DHT22;8258;51.020;4.248;2023-12-20T00:09:47;5.20;99.90
16301;DHT22;8258;51.020;4.248;2023-12-20T00:12:14;5.20;99.90
16301;DHT22;8258;51.020;4.248;2023-12-20T00:14:40;5.10;99.90
16301;DHT22;8258;51.020;4.248;2023-12-20T00:17:07;5.10;99.90
16301;DHT22;8258;51.020;4.248;2023-12-20T00:19:34;5.10;99.90
16301;DHT22;8258;51.020;4.248;2023-12-20T00:22:01;5.10;99.90
16301;DHT22;8258;51.020;4.248;2023-12-20T00:24:30;5.10;99.90
16301;DHT22;8258;51.020;4.248;2023-12-20T00:26:57;5.00;99.90
16301;DHT22;8258;51.020;4.248;2023-12-20T00:29:24;5.00;99.90
16301;DHT22;8258;51.020;4.248;2023-12-20T00:31:51;4.90;99.90
16301;DHT22;8258;51.020;4.248;2023-12-20T00:34:18;5.00;99.90
16301;DHT22;8258;51.020;4.248;2023-12-20T00:36:45;4.90;99.90
16301;DHT22;8258;51.020;4.248;2023-12-20T00:39:13;4.90;99.90
16301;DHT22;8258;51.020;4.248;2023-12-20T00:41:41;4.90;99.90
16301;DHT22;8258;51.020;4.248;2023-12-20T00:44:08;4.90;99.90
16301;DHT22;8258;51.020;4.248;2023-12-20T00:46:35;4.80;99.90
16301;DHT22;8258;51.020;4.248;2023-12-20T00:49:02;4.80;99.90
16301;DHT22;8258;51.020;4.248;2023-12-20T00:51:29;4.80;99.90
16301;DHT22;8258;51.020;4.248;2023-12-20T00:53:56;4.80;99.90
16301;DHT22;8258;51.020;4.248;2023-12-20T00:56:23;4.80;99.90
16301;DHT22;8258;51.020;4.248;2023-12-20T00:58:51;4.90;99.90
16301;DHT22;8258;51.020;4.248;2023-12-20T01:01:18;4.90;99.90
16301;DHT22;8258;51.020;4.248;2023-12-20T01:03:45;4.90;99.90
16301;DHT22;8258;51.020;4.248;2023-12-20T01:06:12;4.90;99.90
16301;DHT22;8258;51.020;4.248;2023-12-20T01:08:39;4.90;99.90
16301;DHT22;8258;51.020;4.248;2023-12-20T01:11:06;4.80;99.90
16301;DHT22;8258;51.020;4.248;2023-12-20T01:13:33;4.80;99.90
16301;DHT22;8258;51.020;4.248;2023-12-20T01:16:02;4.80;99.90
16301;DHT22;8258;51.020;4.248;2023-12-20T01:18:29;4.80;99.90
16301;DHT22;8258;51.020;4.248;2023-12-20T01:21:01;4.80;99.90
16301;DHT22;8258;51.020;4.248;2023-12-20T01:23:28;4.80;99.90
16301;DHT22;8258;51.020;4.248;2023-12-20T01:25:55;4.70;99.90
16301;DHT22;8258;51.020;4.248;2023-12-20T01:28:22;4.70;99.90
16301;DHT22;8258;51.020;4.248;2023-12-20T01:30:50;4.80;99.90
16301;DHT22;8258;51.020;4.248;2023-12-20T01:33:18;4.80;99.90
16301;DHT22;8258;51.020;4.248;2023-12-20T01:35:45;4.70;99.90
16301;DHT22;8258;51.020;4.248;2023-12-20T01:38:12;4.80;99.90
16301;DHT22;8258;51.020;4.248;2023-12-20T01:40:39;4.80;99.90
16301;DHT22;8258;51.020;4.248;2023-12-20T01:43:08;4.80;99.90
16301;DHT22;8258;51.020;4.248;2023-12-20T01:45:35;4.80;99.90
16301;DHT22;8258;51.020;4.248;2023-12-20T01:48:02;4.80;99.90
16301;DHT22;8258;51.020;4.248;2023-12-20T01:50:32;4.80;99.90
16301;DHT22;8258;51.020;4.248;2023-12-20T01:53:01;4.80;99.90
16301;DHT22;8258;51.020;4.248;2023-12-20T01:55:31;4.70;99.90
16301;DHT22;8258;51.020;4.248;2023-12-20T01:57:59;4.70;99.90
16301;DHT22;8258;51.020;4.248;2023-12-20T02:00:28;4.70;99.90
16301;DHT22;8258;51.020;4.248;2023-12-20T02:02:56;4.70;99.90
16301;DHT22;8258;51.020;4.248;2023-12-20T02:05:24;4.70;99.90
16301;DHT22;8258;51.020;4.248;2023-12-20T02:07:54;4.70;99.90
16301;DHT22;8258;51.020;4.248;2023-12-20T02:10:21;4.70;99.90
16301;DHT22;8258;51.020;4.248;2023-12-20T02:12:49;4.90;99.90
16301;DHT22;8258;51.020;4.248;2023-12-20T02:15:16;4.90;99.90
16301;DHT22;8258;51.020;4.248;2023-12-20T02:17:44;5.00;99.90
16301;DHT22;8258;51.020;4.248;2023-12-20T02:20:12;5.10;99.90
16301;DHT22;8258;51.020;4.248;2023-12-20T02:22:40;5.10;99.90
16301;DHT22;8258;51.020;4.248;2023-12-20T02:25:07;5.20;99.90
16301;DHT22;8258;51.020;4.248;2023-12-20T02:27:35;5.20;99.90
16301;DHT22;8258;51.020;4.248;2023-12-20T02:30:02;5.20;99.90
16301;DHT22;8258;51.020;4.248;2023-12-20T02:32:29;5.20;99.90
16301;DHT22;8258;51.020;4.248;2023-12-20T02:34:57;5.20;99.90
16301;DHT22;8258;51.020;4.248;2023-12-20T02:37:24;5.20;99.90
16301;DHT22;8258;51.020;4.248;2023-12-20T02:39:52;5.20;99.90
16301;DHT22;8258;51.020;4.248;2023-12-20T02:42:19;5.30;99.90
16301;DHT22;8258;51.020;4.248;2023-12-20T02:44:46;5.40;99.90
16301;DHT22;8258;51.020;4.248;2023-12-20T02:47:13;5.40;99.90
16301;DHT22;8258;51.020;4.248;2023-12-20T02:49:40;5.40;99.90
16301;DHT22;8258;51.020;4.248;2023-12-20T02:52:07;5.50;99.90
16301;DHT22;8258;51.020;4.248;2023-12-20T02:54:34;5.60;99.90
16301;DHT22;8258;51.020;4.248;2023-12-20T02:57:03;5.60;99.90
16301;DHT22;8258;51.020;4.248;2023-12-20T02:59:30;5.60;99.90
16301;DHT22;8258;51.020;4.248;2023-12-20T03:01:57;5.70;99.90
16301;DHT22;8258;51.020;4.248;2023-12-20T03:04:24;5.70;99.90
16301;DHT22;8258;51.020;4.248;2023-12-20T03:06:51;5.80;99.90
16301;DHT22;8258;51.020;4.248;2023-12-20T03:09:17;5.80;99.90
16301;DHT22;8258;51.020;4.248;2023-12-20T03:11:44;5.80;99.90
16301;DHT22;8258;51.020;4.248;2023-12-20T03:14:13;5.80;99.90
16301;DHT22;8258;51.020;4.248;2023-12-20T03:16:40;5.80;99.90
16301;DHT22;8258;51.020;4.248;2023-12-20T03:19:07;5.90;99.90
16301;DHT22;8258;51.020;4.248;2023-12-20T03:21:34;5.90;99.90
16301;DHT22;8258;51.020;4.248;2023-12-20T03:24:00;6.00;99.90
16301;DHT22;8258;51.020;4.248;2023-12-20T03:26:27;6.00;99.90
16301;DHT22;8258;51.020;4.248;2023-12-20T03:28:54;6.00;99.90
16301;DHT22;8258;51.020;4.248;2023-12-20T03:31:23;6.10;99.90
16301;DHT22;8258;51.020;4.248;2023-12-20T03:33:50;6.10;99.90
16301;DHT22;8258;51.020;4.248;2023-12-20T03:36:19;6.10;99.90
16301;DHT22;8258;51.020;4.248;2023-12-20T03:38:46;6.10;99.90
16301;DHT22;8258;51.020;4.248;2023-12-20T03:41:13;6.10;99.90
16301;DHT22;8258;51.020;4.248;2023-12-20T03:43:40;6.10;99.90
16301;DHT22;8258;51.020;4.248;2023-12-20T03:46:08;6.10;99.90
16301;DHT22;8258;51.020;4.248;2023-12-20T03:48:36;6.20;99.90
16301;DHT22;8258;51.020;4.248;2023-12-20T03:51:03;6.20;99.90
16301;DHT22;8258;51.020;4.248;2023-12-20T03:53:30;6.10;99.90
16301;DHT22;8258;51.020;4.248;2023-12-20T03:55:58;6.10;99.90
16301;DHT22;8258;51.020;4.248;2023-12-20T03:58:25;6.00;99.90
16301;DHT22;8258;51.020;4.248;2023-12-20T04:00:51;6.00;99.90
16301;DHT22;8258;51.020;4.248;2023-12-20T04:03:18;5.90;99.90
16301;DHT22;8258;51.020;4.248;2023-12-20T04:05:47;5.90;99.90
16301;DHT22;8258;51.020;4.248;2023-12-20T04:08:14;5.90;99.90
16301;DHT22;8258;51.020;4.248;2023-12-20T04:10:41;5.90;99.90
16301;DHT22;8258;51.020;4.248;2023-12-20T04:13:08;5.80;99.90
16301;DHT22;8258;51.020;4.248;2023-12-20T04:15:35;5.80;99.90
16301;DHT22;8258;51.020;4.248;2023-12-20T04:18:02;5.80;99.90
16301;DHT22;8258;51.020;4.248;2023-12-20T04:20:29;5.70;99.90
16301;DHT22;8258;51.020;4.248;2023-12-20T04:22:57;5.70;99.90
16301;DHT22;8258;51.020;4.248;2023-12-20T04:25:25;5.70;99.90
16301;DHT22;8258;51.020;4.248;2023-12-20T04:27:52;5.80;99.90
16301;DHT22;8258;51.020;4.248;2023-12-20T04:30:19;5.70;99.90
16301;DHT22;8258;51.020;4.248;2023-12-20T04:32:46;5.70;99.90
16301;DHT22;8258;51.020;4.248;2023-12-20T04:35:13;5.70;99.90
16301;DHT22;8258;51.020;4.248;2023-12-20T04:37:40;5.70;99.90
16301;DHT22;8258;51.020;4.248;2023-12-20T04:40:09;5.70;99.90
16301;DHT22;8258;51.020;4.248;2023-12-20T04:42:37;5.70;99.90
16301;DHT22;8258;51.020;4.248;2023-12-20T04:45:04;5.70;99.90
16301;DHT22;8258;51.020;4.248;2023-12-20T04:47:31;5.70;99.90
16301;DHT22;8258;51.020;4.248;2023-12-20T04:49:58;5.70;99.90
16301;DHT22;8258;51.020;4.248;2023-12-20T04:52:26;5.60;99.90
16301;DHT22;8258;51.020;4.248;2023-12-20T04:54:53;5.60;99.90
16301;DHT22;8258;51.020;4.248;2023-12-20T04:57:21;5.50;99.90
16301;DHT22;8258;51.020;4.248;2023-12-20T04:59:48;5.50;99.90
16301;DHT22;8258;51.020;4.248;2023-12-20T05:02:15;5.50;99.90
16301;DHT22;8258;51.020;4.248;2023-12-20T05:04:42;5.40;99.90
16301;DHT22;8258;51.020;4.248;2023-12-20T05:07:09;5.40;99.90
16301;DHT22;8258;51.020;4.248;2023-12-20T05:09:36;5.40;99.90
16301;DHT22;8258;51.020;4.248;2023-12-20T05:12:04;5.40;99.90
16301;DHT22;8258;51.020;4.248;2023-12-20T05:14:32;5.30;99.90
16301;DHT22;8258;51.020;4.248;2023-12-20T05:16:59;5.30;99.90
16301;DHT22;8258;51.020;4.248;2023-12-20T05:19:26;5.30;99.90
16301;DHT22;8258;51.020;4.248;2023-12-20T05:21:53;5.30;99.90
16301;DHT22;8258;51.020;4.248;2023-12-20T05:24:20;5.30;99.90
16301;DHT22;8258;51.020;4.248;2023-12-20T05:26:47;5.30;99.90
16301;DHT22;8258;51.020;4.248;2023-12-20T05:29:14;5.20;99.90
16301;DHT22;8258;51.020;4.248;2023-12-20T05:31:42;5.20;99.90
16301;DHT22;8258;51.020;4.248;2023-12-20T05:34:09;5.20;99.90
16301;DHT22;8258;51.020;4.248;2023-12-20T05:36:36;5.20;99.90
16301;DHT22;8258;51.020;4.248;2023-12-20T05:39:04;5.20;99.90
16301;DHT22;8258;51.020;4.248;2023-12-20T05:41:33;5.30;99.90
16301;DHT22;8258;51.020;4.248;2023-12-20T05:44:00;5.30;99.90
16301;DHT22;8258;51.020;4.248;2023-12-20T05:46:27;5.30;99.90
16301;DHT22;8258;51.020;4.248;2023-12-20T05:48:56;5.30;99.90
16301;DHT22;8258;51.020;4.248;2023-12-20T05:51:23;5.30;99.90
16301;DHT22;8258;51.020;4.248;2023-12-20T05:53:50;5.30;99.90
16301;DHT22;8258;51.020;4.248;2023-12-20T05:56:17;5.30;99.90
16301;DHT22;8258;51.020;4.248;2023-12-20T05:58:44;5.30;99.90
16301;DHT22;8258;51.020;4.248;2023-12-20T06:01:10;5.30;99.90
16301;DHT22;8258;51.020;4.248;2023-12-20T06:03:41;5.30;99.90
16301;DHT22;8258;51.020;4.248;2023-12-20T06:06:12;5.40;99.90
16301;DHT22;8258;51.020;4.248;2023-12-20T06:08:40;5.50;99.90
16301;DHT22;8258;51.020;4.248;2023-12-20T06:11:09;5.50;99.90
16301;DHT22;8258;51.020;4.248;2023-12-20T06:13:36;5.60;99.90
16301;DHT22;8258;51.020;4.248;2023-12-20T06:16:04;5.60;99.90
16301;DHT22;8258;51.020;4.248;2023-12-20T06:18:31;5.60;99.90
16301;DHT22;8258;51.020;4.248;2023-12-20T06:20:58;5.50;99.90
16301;DHT22;8258;51.020;4.248;2023-12-20T06:23:27;5.50;99.90
16301;DHT22;8258;51.020;4.248;2023-12-20T06:25:54;5.40;99.90
16301;DHT22;8258;51.020;4.248;2023-12-20T06:28:21;5.50;99.90
16301;DHT22;8258;51.020;4.248;2023-12-20T06:30:48;5.40;99.90
16301;DHT22;8258;51.020;4.248;2023-12-20T06:33:15;5.40;99.90
16301;DHT22;8258;51.020;4.248;2023-12-20T06:35:44;5.40;99.90
16301;DHT22;8258;51.020;4.248;2023-12-20T06:38:11;5.30;99.90
16301;DHT22;8258;51.020;4.248;2023-12-20T06:40:39;5.30;99.90
16301;DHT22;8258;51.020;4.248;2023-12-20T06:43:09;5.30;99.90
16301;DHT22;8258;51.020;4.248;2023-12-20T06:45:36;5.40;99.90
16301;DHT22;8258;51.020;4.248;2023-12-20T06:48:04;5.40;99.90
16301;DHT22;8258;51.020;4.248;2023-12-20T06:50:31;5.30;99.90
16301;DHT22;8258;51.020;4.248;2023-12-20T06:52:58;5.40;99.90
16301;DHT22;8258;51.020;4.248;2023-12-20T06:55:32;5.40;99.90
16301;DHT22;8258;51.020;4.248;2023-12-20T06:58:01;5.40;99.90
16301;DHT22;8258;51.020;4.248;2023-12-20T07:00:28;5.50;99.90
16301;DHT22;8258;51.020;4.248;2023-12-20T07:02:55;5.50;99.90
16301;DHT22;8258;51.020;4.248;2023-12-20T07:05:22;5.50;99.90
16301;DHT22;8258;51.020;4.248;2023-12-20T07:07:49;5.50;99.90
16301;DHT22;8258;51.020;4.248;2023-12-20T07:10:16;5.40;99.90
16301;DHT22;8258;51.020;4.248;2023-12-20T07:12:44;5.40;99.90
16301;DHT22;8258;51.020;4.248;2023-12-20T07:15:12;5.40;99.90
16301;DHT22;8258;51.020;4.248;2023-12-20T07:17:40;5.40;99.90
16301;DHT22;8258;51.020;4.248;2023-12-20T07:20:08;5.40;99.90
16301;DHT22;8258;51.020;4.248;2023-12-20T07:22:36;5.30;99.90
16301;DHT22;8258;51.020;4.248;2023-12-20T07:25:04;5.40;99.90
16301;DHT22;8258;51.020;4.248;2023-12-20T07:27:32;5.30;99.90
16301;DHT22;8258;51.020;4.248;2023-12-20T07:29:59;5.30;99.90
16301;DHT22;8258;51.020;4.248;2023-12-20T07:32:27;5.30;99.90
16301;DHT22;8258;51.020;4.248;2023-12-20T07:34:54;5.30;99.90
16301;DHT22;8258;51.020;4.248;2023-12-20T07:37:21;5.30;99.90
16301;DHT22;8258;51.020;4.248;2023-12-20T07:39:48;5.30;99.90
16301;DHT22;8258;51.020;4.248;2023-12-20T07:42:15;5.20;99.90
16301;DHT22;8258;51.020;4.248;2023-12-20T07:44:42;5.20;99.90
16301;DHT22;8258;51.020;4.248;2023-12-20T07:47:09;5.30;99.90
16301;DHT22;8258;51.020;4.248;2023-12-20T07:49:39;5.30;99.90
16301;DHT22;8258;51.020;4.248;2023-12-20T07:52:06;5.20;99.90
16301;DHT22;8258;51.020;4.248;2023-12-20T07:54:33;5.20;99.90
16301;DHT22;8258;51.020;4.248;2023-12-20T07:57:00;5.20;99.90
16301;DHT22;8258;51.020;4.248;2023-12-20T07:59:27;5.30;99.90
16301;DHT22;8258;51.020;4.248;2023-12-20T08:01:54;5.30;99.90
16301;DHT22;8258;51.020;4.248;2023-12-20T08:04:22;5.40;99.90
16301;DHT22;8258;51.020;4.248;2023-12-20T08:06:50;5.40;99.90
16301;DHT22;8258;51.020;4.248;2023-12-20T08:09:17;5.40;99.90
16301;DHT22;8258;51.020;4.248;2023-12-20T08:11:46;5.50;99.90
16301;DHT22;8258;51.020;4.248;2023-12-20T08:14:13;5.60;99.90
16301;DHT22;8258;51.020;4.248;2023-12-20T08:16:41;5.80;99.90
16301;DHT22;8258;51.020;4.248;2023-12-20T08:19:09;5.90;99.90
16301;DHT22;8258;51.020;4.248;2023-12-20T08:21:36;6.00;99.90
16301;DHT22;8258;51.020;4.248;2023-12-20T08:24:06;5.90;99.90
16301;DHT22;8258;51.020;4.248;2023-12-20T08:26:33;5.90;99.90
16301;DHT22;8258;51.020;4.248;2023-12-20T08:29:00;5.90;99.90
16301;DHT22;8258;51.020;4.248;2023-12-20T08:31:27;5.90;99.90
16301;DHT22;8258;51.020;4.248;2023-12-20T08:33:54;5.80;99.90
16301;DHT22;8258;51.020;4.248;2023-12-20T08:36:22;5.80;99.90
16301;DHT22;8258;51.020;4.248;2023-12-20T08:38:49;5.80;99.90
16301;DHT22;8258;51.020;4.248;2023-12-20T08:41:18;6.00;99.90
16301;DHT22;8258;51.020;4.248;2023-12-20T08:43:46;6.20;99.90
16301;DHT22;8258;51.020;4.248;2023-12-20T08:46:14;6.30;99.90
16301;DHT22;8258;51.020;4.248;2023-12-20T08:48:41;6.20;99.90
16301;DHT22;8258;51.020;4.248;2023-12-20T08:51:08;6.20;99.90
16301;DHT22;8258;51.020;4.248;2023-12-20T08:53:36;6.10;99.90
16301;DHT22;8258;51.020;4.248;2023-12-20T08:56:04;6.10;99.90
16301;DHT22;8258;51.020;4.248;2023-12-20T08:58:33;6.10;99.90
16301;DHT22;8258;51.020;4.248;2023-12-20T09:01:01;6.10;99.90
16301;DHT22;8258;51.020;4.248;2023-12-20T09:03:28;6.20;99.90
16301;DHT22;8258;51.020;4.248;2023-12-20T09:05:55;6.30;99.90
16301;DHT22;8258;51.020;4.248;2023-12-20T09:08:22;6.30;99.90
16301;DHT22;8258;51.020;4.248;2023-12-20T09:10:49;6.30;99.90
16301;DHT22;8258;51.020;4.248;2023-12-20T09:13:16;6.40;99.90
16301;DHT22;8258;51.020;4.248;2023-12-20T09:15:45;6.40;99.90
16301;DHT22;8258;51.020;4.248;2023-12-20T09:18:12;6.50;99.90
16301;DHT22;8258;51.020;4.248;2023-12-20T09:20:39;6.60;99.90
16301;DHT22;8258;51.020;4.248;2023-12-20T09:23:06;6.60;99.90
16301;DHT22;8258;51.020;4.248;2023-12-20T09:25:33;6.80;99.90
16301;DHT22;8258;51.020;4.248;2023-12-20T09:28:00;6.90;99.90
16301;DHT22;8258;51.020;4.248;2023-12-20T09:30:27;7.10;99.90
16301;DHT22;8258;51.020;4.248;2023-12-20T09:32:56;7.20;99.90
16301;DHT22;8258;51.020;4.248;2023-12-20T09:35:23;7.20;99.90
16301;DHT22;8258;51.020;4.248;2023-12-20T09:37:51;7.20;99.90
16301;DHT22;8258;51.020;4.248;2023-12-20T09:40:19;7.30;99.90
16301;DHT22;8258;51.020;4.248;2023-12-20T09:42:48;7.20;99.90
16301;DHT22;8258;51.020;4.248;2023-12-20T09:45:20;7.20;99.90
16301;DHT22;8258;51.020;4.248;2023-12-20T09:47:49;7.20;99.90
16301;DHT22;8258;51.020;4.248;2023-12-20T09:50:20;7.10;99.90
16301;DHT22;8258;51.020;4.248;2023-12-20T09:52:50;7.10;99.90
16301;DHT22;8258;51.020;4.248;2023-12-20T09:55:17;7.10;99.90
16301;DHT22;8258;51.020;4.248;2023-12-20T09:57:45;6.90;99.90
16301;DHT22;8258;51.020;4.248;2023-12-20T10:00:13;6.90;99.90
16301;DHT22;8258;51.020;4.248;2023-12-20T10:02:46;6.80;99.90
16301;DHT22;8258;51.020;4.248;2023-12-20T10:05:18;7.00;99.90
16301;DHT22;8258;51.020;4.248;2023-12-20T10:07:46;7.30;99.90
16301;DHT22;8258;51.020;4.248;2023-12-20T10:10:13;7.60;99.90
16301;DHT22;8258;51.020;4.248;2023-12-20T10:12:41;7.70;99.90
16301;DHT22;8258;51.020;4.248;2023-12-20T10:15:27;7.80;99.90
16301;DHT22;8258;51.020;4.248;2023-12-20T10:17:54;7.80;99.90
16301;DHT22;8258;51.020;4.248;2023-12-20T10:20:23;7.70;99.90
16301;DHT22;8258;51.020;4.248;2023-12-20T10:22:50;7.60;99.90
16301;DHT22;8258;51.020;4.248;2023-12-20T10:25:19;7.70;99.90
16301;DHT22;8258;51.020;4.248;2023-12-20T10:27:46;7.70;99.90
16301;DHT22;8258;51.020;4.248;2023-12-20T10:30:13;7.80;99.90
16301;DHT22;8258;51.020;4.248;2023-12-20T10:32:41;7.90;99.90
16301;DHT22;8258;51.020;4.248;2023-12-20T10:35:09;7.90;99.90
16301;DHT22;8258;51.020;4.248;2023-12-20T10:37:38;7.90;99.90
16301;DHT22;8258;51.020;4.248;2023-12-20T10:40:07;7.90;99.90
16301;DHT22;8258;51.020;4.248;2023-12-20T10:42:35;7.90;99.90
16301;DHT22;8258;51.020;4.248;2023-12-20T10:45:04;8.00;99.90
16301;DHT22;8258;51.020;4.248;2023-12-20T10:47:31;7.80;99.90
16301;DHT22;8258;51.020;4.248;2023-12-20T10:49:59;7.80;99.90
16301;DHT22;8258;51.020;4.248;2023-12-20T10:52:28;7.80;99.90
16301;DHT22;8258;51.020;4.248;2023-12-20T10:54:57;7.80;99.90
16301;DHT22;8258;51.020;4.248;2023-12-20T10:57:26;7.70;99.90
16301;DHT22;8258;51.020;4.248;2023-12-20T10:59:54;7.70;99.90
16301;DHT22;8258;51.020;4.248;2023-12-20T11:02:22;7.70;99.90
16301;DHT22;8258;51.020;4.248;2023-12-20T11:04:56;7.80;99.90
16301;DHT22;8258;51.020;4.248;2023-12-20T11:07:31;7.80;99.90
16301;DHT22;8258;51.020;4.248;2023-12-20T11:10:03;7.80;99.90
16301;DHT22;8258;51.020;4.248;2023-12-20T11:12:42;7.90;99.90
16301;DHT22;8258;51.020;4.248;2023-12-20T11:15:12;7.80;99.90
16301;DHT22;8258;51.020;4.248;2023-12-20T11:17:41;7.90;99.90
16301;DHT22;8258;51.020;4.248;2023-12-20T11:20:11;7.90;99.90
16301;DHT22;8258;51.020;4.248;2023-12-20T11:22:40;8.00;99.90
16301;DHT22;8258;51.020;4.248;2023-12-20T11:25:20;7.90;99.90
16301;DHT22;8258;51.020;4.248;2023-12-20T11:28:08;8.00;99.90
16301;DHT22;8258;51.020;4.248;2023-12-20T11:30:41;8.00;99.90
16301;DHT22;8258;51.020;4.248;2023-12-20T11:33:09;7.90;99.90
16301;DHT22;8258;51.020;4.248;2023-12-20T11:35:36;7.90;99.90
16301;DHT22;8258;51.020;4.248;2023-12-20T11:38:07;7.90;99.90
16301;DHT22;8258;51.020;4.248;2023-12-20T11:40:35;7.80;99.90
16301;DHT22;8258;51.020;4.248;2023-12-20T11:43:03;7.80;99.90
16301;DHT22;8258;51.020;4.248;2023-12-20T11:45:31;7.90;99.90
16301;DHT22;8258;51.020;4.248;2023-12-20T11:47:58;8.00;99.90
16301;DHT22;8258;51.020;4.248;2023-12-20T11:50:25;8.00;99.90
16301;DHT22;8258;51.020;4.248;2023-12-20T11:52:53;8.10;99.90
16301;DHT22;8258;51.020;4.248;2023-12-20T11:55:21;8.20;99.90
16301;DHT22;8258;51.020;4.248;2023-12-20T11:57:50;8.30;99.90
16301;DHT22;8258;51.020;4.248;2023-12-20T12:00:18;8.30;99.90
16301;DHT22;8258;51.020;4.248;2023-12-20T12:02:55;8.40;99.90
16301;DHT22;8258;51.020;4.248;2023-12-20T12:05:23;8.50;99.90
16301;DHT22;8258;51.020;4.248;2023-12-20T12:07:50;8.50;99.90
16301;DHT22;8258;51.020;4.248;2023-12-20T12:10:17;8.50;99.90
16301;DHT22;8258;51.020;4.248;2023-12-20T12:12:44;8.50;99.90
16301;DHT22;8258;51.020;4.248;2023-12-20T12:15:12;8.50;99.90
16301;DHT22;8258;51.020;4.248;2023-12-20T12:17:39;8.40;99.90
16301;DHT22;8258;51.020;4.248;2023-12-20T12:20:07;8.40;99.90
16301;DHT22;8258;51.020;4.248;2023-12-20T12:22:35;8.50;99.90
16301;DHT22;8258;51.020;4.248;2023-12-20T12:25:10;8.50;99.90
16301;DHT22;8258;51.020;4.248;2023-12-20T12:27:39;8.50;99.90
16301;DHT22;8258;51.020;4.248;2023-12-20T12:30:07;8.50;99.90
16301;DHT22;8258;51.020;4.248;2023-12-20T12:32:36;8.60;99.90
16301;DHT22;8258;51.020;4.248;2023-12-20T12:35:04;8.50;99.90
16301;DHT22;8258;51.020;4.248;2023-12-20T12:37:33;8.50;99.90
16301;DHT22;8258;51.020;4.248;2023-12-20T12:40:01;8.50;99.90
16301;DHT22;8258;51.020;4.248;2023-12-20T12:42:28;8.40;99.90
16301;DHT22;8258;51.020;4.248;2023-12-20T12:44:55;8.50;99.90
16301;DHT22;8258;51.020;4.248;2023-12-20T12:47:22;8.50;99.90
16301;DHT22;8258;51.020;4.248;2023-12-20T12:49:52;8.60;99.90
16301;DHT22;8258;51.020;4.248;2023-12-20T12:52:19;8.60;99.90
16301;DHT22;8258;51.020;4.248;2023-12-20T12:54:45;8.50;99.90
16301;DHT22;8258;51.020;4.248;2023-12-20T12:57:14;8.40;99.90
16301;DHT22;8258;51.020;4.248;2023-12-20T12:59:41;8.40;99.90
16301;DHT22;8258;51.020;4.248;2023-12-20T13:02:09;8.40;99.90
16301;DHT22;8258;51.020;4.248;2023-12-20T13:04:36;8.50;99.90
16301;DHT22;8258;51.020;4.248;2023-12-20T13:07:05;8.50;99.90
16301;DHT22;8258;51.020;4.248;2023-12-20T13:09:32;8.50;99.90
16301;DHT22;8258;51.020;4.248;2023-12-20T13:11:59;8.50;99.90
16301;DHT22;8258;51.020;4.248;2023-12-20T13:14:29;8.50;99.90
16301;DHT22;8258;51.020;4.248;2023-12-20T13:16:56;8.60;99.90
16301;DHT22;8258;51.020;4.248;2023-12-20T13:19:23;8.50;99.90
16301;DHT22;8258;51.020;4.248;2023-12-20T13:21:50;8.60;99.90
16301;DHT22;8258;51.020;4.248;2023-12-20T13:24:18;8.60;99.90
16301;DHT22;8258;51.020;4.248;2023-12-20T13:26:45;8.60;99.90
16301;DHT22;8258;51.020;4.248;2023-12-20T13:29:12;8.60;99.90
16301;DHT22;8258;51.020;4.248;2023-12-20T13:31:39;8.60;99.90
16301;DHT22;8258;51.020;4.248;2023-12-20T13:34:06;8.60;99.90
16301;DHT22;8258;51.020;4.248;2023-12-20T13:36:33;8.70;99.90
16301;DHT22;8258;51.020;4.248;2023-12-20T13:39:01;8.70;99.90
16301;DHT22;8258;51.020;4.248;2023-12-20T13:41:31;8.70;99.90
16301;DHT22;8258;51.020;4.248;2023-12-20T13:43:58;8.80;99.90
16301;DHT22;8258;51.020;4.248;2023-12-20T13:46:27;8.80;99.90
16301;DHT22;8258;51.020;4.248;2023-12-20T13:48:54;8.90;99.90
16301;DHT22;8258;51.020;4.248;2023-12-20T13:51:21;8.90;99.90
16301;DHT22;8258;51.020;4.248;2023-12-20T13:53:48;8.90;99.90
16301;DHT22;8258;51.020;4.248;2023-12-20T13:56:15;8.90;99.90
16301;DHT22;8258;51.020;4.248;2023-12-20T13:58:44;8.90;99.90
16301;DHT22;8258;51.020;4.248;2023-12-20T14:01:12;8.90;99.90
16301;DHT22;8258;51.020;4.248;2023-12-20T14:03:39;8.90;99.90
16301;DHT22;8258;51.020;4.248;2023-12-20T14:06:06;8.90;99.90
16301;DHT22;8258;51.020;4.248;2023-12-20T14:08:33;8.90;99.90
16301;DHT22;8258;51.020;4.248;2023-12-20T14:11:01;8.90;99.90
16301;DHT22;8258;51.020;4.248;2023-12-20T14:13:28;8.90;99.90
16301;DHT22;8258;51.020;4.248;2023-12-20T14:15:58;8.90;99.90
16301;DHT22;8258;51.020;4.248;2023-12-20T14:18:26;8.90;99.90
16301;DHT22;8258;51.020;4.248;2023-12-20T14:20:53;8.90;99.90
16301;DHT22;8258;51.020;4.248;2023-12-20T14:23:20;8.90;99.90
16301;DHT22;8258;51.020;4.248;2023-12-20T14:25:48;9.00;99.90
16301;DHT22;8258;51.020;4.248;2023-12-20T14:28:15;9.00;99.90
16301;DHT22;8258;51.020;4.248;2023-12-20T14:30:42;9.10;99.90
16301;DHT22;8258;51.020;4.248;2023-12-20T14:33:12;9.00;99.90
16301;DHT22;8258;51.020;4.248;2023-12-20T14:35:39;9.00;99.90
16301;DHT22;8258;51.020;4.248;2023-12-20T14:38:08;9.00;99.90
16301;DHT22;8258;51.020;4.248;2023-12-20T14:40:35;9.00;99.90
16301;DHT22;8258;51.020;4.248;2023-12-20T14:43:02;9.00;99.90
16301;DHT22;8258;51.020;4.248;2023-12-20T14:45:29;9.00;99.90
16301;DHT22;8258;51.020;4.248;2023-12-20T14:47:56;9.00;99.90
16301;DHT22;8258;51.020;4.248;2023-12-20T14:50:25;9.00;99.90
16301;DHT22;8258;51.020;4.248;2023-12-20T14:52:52;8.90;99.90
16301;DHT22;8258;51.020;4.248;2023-12-20T14:55:20;8.90;99.90
16301;DHT22;8258;51.020;4.248;2023-12-20T14:57:48;8.90;99.90
16301;DHT22;8258;51.020;4.248;2023-12-20T15:00:15;8.90;99.90
16301;DHT22;8258;51.020;4.248;2023-12-20T15:02:43;8.90;99.90
16301;DHT22;8258;51.020;4.248;2023-12-20T15:05:10;8.90;99.90
16301;DHT22;8258;51.020;4.248;2023-12-20T15:07:39;8.90;99.90
16301;DHT22;8258;51.020;4.248;2023-12-20T15:10:07;8.90;99.90
16301;DHT22;8258;51.020;4.248;2023-12-20T15:12:34;8.90;99.90
16301;DHT22;8258;51.020;4.248;2023-12-20T15:15:01;8.90;99.90
16301;DHT22;8258;51.020;4.248;2023-12-20T15:17:28;8.90;99.90
16301;DHT22;8258;51.020;4.248;2023-12-20T15:19:55;8.90;99.90
16301;DHT22;8258;51.020;4.248;2023-12-20T15:22:22;8.90;99.90
16301;DHT22;8258;51.020;4.248;2023-12-20T15:24:53;8.90;99.90
16301;DHT22;8258;51.020;4.248;2023-12-20T15:27:20;9.00;99.90
16301;DHT22;8258;51.020;4.248;2023-12-20T15:29:47;9.00;99.90
16301;DHT22;8258;51.020;4.248;2023-12-20T15:32:15;9.00;99.90
16301;DHT22;8258;51.020;4.248;2023-12-20T15:34:44;9.00;99.90
16301;DHT22;8258;51.020;4.248;2023-12-20T15:37:11;9.00;99.90
16301;DHT22;8258;51.020;4.248;2023-12-20T15:39:40;9.00;99.90
16301;DHT22;8258;51.020;4.248;2023-12-20T15:42:09;9.00;99.90
16301;DHT22;8258;51.020;4.248;2023-12-20T15:44:36;9.00;99.90
16301;DHT22;8258;51.020;4.248;2023-12-20T15:47:03;9.00;99.90
16301;DHT22;8258;51.020;4.248;2023-12-20T15:49:30;8.90;99.90
16301;DHT22;8258;51.020;4.248;2023-12-20T15:51:57;8.80;99.90
16301;DHT22;8258;51.020;4.248;2023-12-20T15:54:24;8.80;99.90
16301;DHT22;8258;51.020;4.248;2023-12-20T15:56:51;8.80;99.90
16301;DHT22;8258;51.020;4.248;2023-12-20T15:59:19;8.80;99.90
16301;DHT22;8258;51.020;4.248;2023-12-20T16:01:46;8.80;99.90
16301;DHT22;8258;51.020;4.248;2023-12-20T16:04:13;8.80;99.90
16301;DHT22;8258;51.020;4.248;2023-12-20T16:06:40;8.80;99.90